Time;durP1;ratioP1;P1;durP2;ratioP2;P2;SDS_P1;SDS_P2;PMS_P1;PMS_P2;Temp;Humidity;BMP_temperature;BMP_pressure;BME280_temperature;BME280_humidity;BME280_pressure;Samples;Min_cycle;Max_cycle;Signal;HPM_P1;HPM_P2
2024/04/16 00:02:19;;;;;;;38.90;19.20;;;;;;;-147.86;100.00;78402.65;105864;1257;72536;-49
2024/04/16 00:04:46;;;;;;;53.20;24.20;;;;;;;-147.86;100.00;78502.99;105879;1252;62983;-45
2024/04/16 00:07:14;;;;;;;54.50;26.10;;;;;;;-147.86;100.00;78625.48;105874;1252;60434;-47
2024/04/16 00:09:41;;;;;;;40.20;19.90;;;;;;;-147.86;100.00;78688.69;105852;1257;73633;-47
2024/04/16 00:12:08;;;;;;;39.70;18.60;;;;;;;-147.86;100.00;78762.95;105831;1259;65432;-47
2024/04/16 00:14:53;;;;;;;39.20;21.30;;;;;;;-147.86;100.00;78633.39;105838;1257;72644;-47
2024/04/16 00:17:23;;;;;;;37.40;20.20;;;;;;;-147.86;100.00;78898.88;105784;1260;61800;-44
2024/04/16 00:19:50;;;;;;;37.30;20.80;;;;;;;-147.86;100.00;79012.67;105816;1254;60461;-46
2024/04/16 00:22:17;;;;;;;41.70;23.40;;;;;;;-147.86;100.00;79182.18;105823;1258;73619;-45
2024/04/16 00:24:45;;;;;;;46.10;24.00;;;;;;;-147.86;100.00;79224.45;105849;1257;65409;-47
2024/04/16 00:27:12;;;;;;;40.10;23.30;;;;;;;-147.86;100.00;79417.29;105827;1257;73115;-50
2024/04/16 00:29:39;;;;;;;36.80;20.00;;;;;;;-147.86;100.00;79491.98;105698;1254;61946;-45
2024/04/16 00:32:06;;;;;;;38.70;21.40;;;;;;;-147.86;100.00;79633.45;105819;1255;60473;-47
2024/04/16 00:34:34;;;;;;;42.20;21.30;;;;;;;-147.86;100.00;79707.34;105849;1257;73567;-45
2024/04/16 00:37:01;;;;;;;41.60;21.70;;;;;;;-147.86;100.00;79817.21;105827;1253;65460;-47
2024/04/16 00:39:28;;;;;;;44.80;22.30;;;;;;;-147.86;100.00;79954.35;105779;1257;72548;-47
2024/04/16 00:41:55;;;;;;;42.70;21.00;;;;;;;-147.86;100.00;80093.08;105858;1257;61761;-46
2024/04/16 00:44:23;;;;;;;40.70;20.30;;;;;;;-147.86;100.00;80226.66;105823;1253;60406;-49
2024/04/16 00:46:53;;;;;;;48.50;20.00;;;;;;;-147.86;100.00;80295.03;105858;1257;72601;-45
2024/04/16 00:49:20;;;;;;;43.30;19.00;;;;;;;-147.86;100.00;80367.77;105805;1257;65564;-47
2024/04/16 00:51:47;;;;;;;41.60;18.10;;;;;;;-147.86;100.00;80496.22;105868;1256;71598;-44
2024/04/16 00:54:14;;;;;;;39.90;19.50;;;;;;;-147.86;100.00;80564.20;105857;1254;61799;-48
2024/04/16 00:56:41;;;;;;;42.30;18.80;;;;;;;-147.86;100.00;80563.02;105662;1259;60400;-46
2024/04/16 00:59:08;;;;;;;38.20;16.60;;;;;;;-147.86;100.00;80666.19;105547;1258;73778;-49
2024/04/16 01:01:36;;;;;;;36.10;17.50;;;;;;;-147.86;100.00;80672.91;105798;1258;65455;-50
2024/04/16 01:04:04;;;;;;;30.20;16.10;;;;;;;-147.86;100.00;80714.81;105874;1258;72612;-47
2024/04/16 01:06:31;;;;;;;38.10;17.60;;;;;;;-147.86;100.00;80837.73;105783;1257;61953;-46
2024/04/16 01:08:58;;;;;;;43.70;18.90;;;;;;;-147.86;100.00;80952.77;105832;1257;60426;-46
2024/04/16 01:11:25;;;;;;;38.30;18.40;;;;;;;-147.86;100.00;81033.42;105879;1253;73822;-44
2024/04/16 01:13:54;;;;;;;42.20;18.40;;;;;;;-147.86;100.00;81124.75;105870;1258;65370;-43
2024/04/16 01:16:21;;;;;;;36.00;17.20;;;;;;;-147.86;100.00;81176.52;105845;1254;70399;-46
2024/04/16 01:18:48;;;;;;;38.70;16.30;;;;;;;-147.86;100.00;81231.09;105839;1254;61799;-46
2024/04/16 01:21:15;;;;;;;37.60;19.00;;;;;;;-147.86;100.00;81261.13;105880;1256;61430;-46
2024/04/16 01:23:42;;;;;;;32.40;17.10;;;;;;;-147.86;100.00;81368.27;105825;1256;74607;-47
2024/04/16 01:26:09;;;;;;;30.00;14.70;;;;;;;-147.86;100.00;81450.11;105822;1255;65337;-46
2024/04/16 01:28:35;;;;;;;26.50;12.80;;;;;;;-147.86;100.00;81523.25;105843;1254;72588;-44
2024/04/16 01:31:02;;;;;;;14.30;10.00;;;;;;;-147.86;100.00;81564.37;105890;1257;61870;-46
2024/04/16 01:33:29;;;;;;;15.20;8.90;;;;;;;-147.86;100.00;81620.12;105816;1253;61286;-48
2024/04/16 01:35:56;;;;;;;20.30;9.10;;;;;;;-147.86;100.00;81611.42;105852;1256;74559;-44
2024/04/16 01:38:23;;;;;;;9.00;8.00;;;;;;;-147.86;100.00;81653.73;105842;1257;65373;-46
2024/04/16 01:40:50;;;;;;;13.50;7.90;;;;;;;-147.86;100.00;81681.80;105843;1257;73171;-47
2024/04/16 01:43:16;;;;;;;16.80;8.60;;;;;;;-147.86;100.00;81737.15;105831;1253;62099;-44
2024/04/16 01:45:43;;;;;;;25.70;9.10;;;;;;;-147.86;100.00;81712.23;105867;1257;61336;-47
2024/04/16 01:48:10;;;;;;;19.10;9.30;;;;;;;-147.86;100.00;81674.29;105848;1257;74793;-45
2024/04/16 01:50:37;;;;;;;22.80;9.50;;;;;;;-147.86;100.00;81683.38;105862;1255;65450;-44
2024/04/16 01:53:04;;;;;;;29.30;11.00;;;;;;;-147.86;100.00;81708.67;105870;1255;72605;-45
2024/04/16 01:55:34;;;;;;;30.90;10.60;;;;;;;-147.86;100.00;81648.58;105853;1253;61929;-45
2024/04/16 01:58:03;;;;;;;23.80;10.70;;;;;;;-147.86;100.00;81631.19;105843;1254;61228;-46
2024/04/16 02:00:30;;;;;;;16.80;10.30;;;;;;;-147.86;100.00;81600.75;105844;1257;73500;-45
2024/04/16 02:02:59;;;;;;;21.60;10.70;;;;;;;-147.86;100.00;81763.64;105900;1258;66923;-46
2024/04/16 02:05:26;;;;;;;29.50;10.70;;;;;;;-147.86;100.00;81759.69;105864;1258;72493;-47
2024/04/16 02:07:53;;;;;;;19.60;11.50;;;;;;;-147.86;100.00;81726.09;105850;1254;61993;-47
2024/04/16 02:10:20;;;;;;;29.40;11.80;;;;;;;-147.86;100.00;81821.77;105822;1257;61324;-44
2024/04/16 02:12:48;;;;;;;23.10;11.90;;;;;;;-147.86;100.00;81953.83;105897;1253;74596;-46
2024/04/16 02:15:14;;;;;;;24.70;12.90;;;;;;;-147.86;100.00;81989.80;105834;1258;65277;-50
2024/04/16 02:17:41;;;;;;;24.70;13.60;;;;;;;-147.86;100.00;82102.11;105929;1256;72487;-47
2024/04/16 02:20:08;;;;;;;33.90;14.40;;;;;;;-147.86;100.00;82087.08;105805;1258;62326;-45
2024/04/16 02:22:36;;;;;;;21.40;12.90;;;;;;;-147.86;100.00;82191.08;105867;1254;61225;-47
2024/04/16 02:25:05;;;;;;;23.60;13.60;;;;;;;-147.86;100.00;82242.89;105872;1257;74582;-47
2024/04/16 02:27:32;;;;;;;20.20;12.90;;;;;;;-147.86;100.00;82318.80;105746;1254;64366;-48
2024/04/16 02:29:58;;;;;;;32.20;15.30;;;;;;;-147.86;100.00;82436.27;105723;1254;72593;-47
2024/04/16 02:32:25;;;;;;;23.90;16.10;;;;;;;-147.86;100.00;82499.93;105592;1255;62481;-48
2024/04/16 02:34:53;;;;;;;33.40;19.60;;;;;;;-147.86;100.00;82485.69;105773;1257;61294;-48
2024/04/16 02:37:20;;;;;;;30.90;19.50;;;;;;;-147.86;100.00;82249.60;105739;1257;74723;-47
2024/04/16 02:39:46;;;;;;;32.10;19.40;;;;;;;-147.86;100.00;82514.95;105884;1257;65507;-49
2024/04/16 02:42:13;;;;;;;35.30;20.40;;;;;;;-147.86;100.00;82635.98;105880;1254;71487;-47
2024/04/16 02:44:40;;;;;;;39.50;20.20;;;;;;;-147.86;100.00;82864.16;105811;1255;61976;-47
2024/04/16 02:47:07;;;;;;;30.30;20.50;;;;;;;-147.86;100.00;83122.44;105877;1254;61263;-47
2024/04/16 02:49:34;;;;;;;31.70;19.00;;;;;;;-147.86;100.00;83217.36;105851;1257;74404;-49
2024/04/16 02:52:01;;;;;;;36.70;18.20;;;;;;;-147.86;100.00;83334.05;105827;1254;65366;-45
2024/04/16 02:54:29;;;;;;;25.20;16.20;;;;;;;-147.86;100.00;83278.67;105937;1254;72592;-46
2024/04/16 02:56:55;;;;;;;24.70;16.40;;;;;;;-147.86;100.00;83297.26;105851;1254;61962;-47
2024/04/16 02:59:22;;;;;;;26.50;15.30;;;;;;;-147.86;100.00;83286.19;105860;1257;61381;-45
2024/04/16 03:01:49;;;;;;;25.40;16.10;;;;;;;-147.86;100.00;83146.95;105848;1255;74613;-45
2024/04/16 03:04:16;;;;;;;28.90;15.20;;;;;;;-147.86;100.00;83215.77;105865;1254;65465;-45
2024/04/16 03:06:43;;;;;;;21.20;13.50;;;;;;;-147.86;100.00;83397.33;105871;1254;72719;-47
2024/04/16 03:09:09;;;;;;;26.90;14.60;;;;;;;-147.86;100.00;83436.10;105814;1254;61813;-47
2024/04/16 03:11:36;;;;;;;21.60;14.00;;;;;;;-147.86;100.00;83559.91;105809;1254;61186;-46
2024/04/16 03:14:03;;;;;;;21.30;13.90;;;;;;;-147.86;100.00;83488.70;105839;1257;74318;-46
2024/04/16 03:16:30;;;;;;;20.60;14.00;;;;;;;-147.86;100.00;83550.02;105865;1254;65920;-47
2024/04/16 03:18:59;;;;;;;26.10;14.00;;;;;;;-147.86;100.00;83877.16;105905;1258;72576;-46
2024/04/16 03:21:26;;;;;;;28.00;12.80;;;;;;;-147.86;100.00;84079.71;105811;1254;61965;-47
2024/04/16 03:23:53;;;;;;;17.40;12.60;;;;;;;-147.86;100.00;84169.91;105815;1256;61277;-45
2024/04/16 03:26:20;;;;;;;18.80;11.60;;;;;;;-147.86;100.00;84234.80;105816;1256;74570;-45
2024/04/16 03:28:47;;;;;;;14.70;11.30;;;;;;;-147.86;100.00;84439.35;105907;1255;65512;-47
2024/04/16 03:31:14;;;;;;;17.50;12.20;;;;;;;-147.86;100.00;84618.19;105899;1257;72715;-45
2024/04/16 03:33:40;;;;;;;14.30;11.50;;;;;;;-147.86;100.00;84731.74;105789;1255;62000;-47
2024/04/16 03:36:08;;;;;;;12.30;11.00;;;;;;;-147.86;100.00;84660.13;105850;1255;61221;-45
2024/04/16 03:38:35;;;;;;;19.00;11.50;;;;;;;-147.86;100.00;84759.45;105880;1255;74660;-47
2024/04/16 03:41:02;;;;;;;14.60;12.20;;;;;;;-147.86;100.00;84924.45;105879;1255;65417;-46
2024/04/16 03:43:29;;;;;;;17.30;11.00;;;;;;;-147.86;100.00;85067.30;105884;1257;72563;-46
2024/04/16 03:45:57;;;;;;;17.40;12.00;;;;;;;-147.86;100.00;85084.71;105825;1258;61324;-47
2024/04/16 03:48:24;;;;;;;19.10;13.10;;;;;;;-147.86;100.00;85123.48;105883;1254;61286;-44
2024/04/16 03:50:51;;;;;;;20.10;13.60;;;;;;;-147.86;100.00;85121.52;105890;1257;74673;-44
2024/04/16 03:53:19;;;;;;;26.70;15.10;;;;;;;-147.86;100.00;85052.66;105840;1255;64665;-49
2024/04/16 03:55:45;;;;;;;25.40;13.80;;;;;;;-147.86;100.00;85030.50;105921;1257;72567;-49
2024/04/16 03:58:13;;;;;;;21.40;14.80;;;;;;;-147.86;100.00;84990.53;105802;1253;61807;-45
2024/04/16 04:03:27;;;;;;;24.10;14.30;;;;;;;-147.86;100.00;84860.34;105773;1256;75076;-46
2024/04/16 04:05:54;;;;;;;21.60;14.30;;;;;;;-147.86;100.00;84961.64;105884;1257;64160;-46
2024/04/16 04:08:22;;;;;;;21.90;12.40;;;;;;;-147.86;100.00;85133.77;105856;1257;71423;-44
2024/04/16 04:10:48;;;;;;;12.70;9.30;;;;;;;-147.86;100.00;85194.71;105866;1257;61217;-45
2024/04/16 04:13:15;;;;;;;10.70;8.70;;;;;;;-147.86;100.00;85242.20;105920;1257;61253;-45
2024/04/16 04:15:42;;;;;;;19.20;9.00;;;;;;;-147.86;100.00;85234.29;105814;1257;74860;-45
2024/04/16 04:18:09;;;;;;;9.80;7.90;;;;;;;-147.86;100.00;85364.48;105922;1254;65466;-45
2024/04/16 04:20:39;;;;;;;14.00;8.40;;;;;;;-147.86;100.00;85418.71;105871;1257;72987;-45
2024/04/16 04:23:07;;;;;;;9.40;8.10;;;;;;;-147.86;100.00;85529.13;105864;1254;61899;-47
2024/04/16 04:25:33;;;;;;;9.70;8.00;;;;;;;-147.86;100.00;85542.19;105854;1254;61322;-47
2024/04/16 04:28:01;;;;;;;15.60;7.30;;;;;;;-147.86;100.00;85598.39;105819;1257;74602;-48
2024/04/16 04:30:30;;;;;;;9.50;7.90;;;;;;;-147.86;100.00;85720.67;105900;1255;64725;-44
2024/04/16 04:32:57;;;;;;;7.60;7.00;;;;;;;-147.86;100.00;85831.89;105858;1257;74026;-47
2024/04/16 04:35:24;;;;;;;7.70;7.10;;;;;;;-147.86;100.00;85709.98;105832;1254;62028;-45
2024/04/16 04:37:51;;;;;;;8.60;7.40;;;;;;;-147.86;100.00;85789.95;105808;1254;61275;-48
2024/04/16 04:40:18;;;;;;;7.70;7.00;;;;;;;-147.86;100.00;85916.20;105815;1256;74617;-44
2024/04/16 04:42:45;;;;;;;7.90;6.80;;;;;;;-147.86;100.00;85994.95;105904;1255;64600;-45
2024/04/16 04:45:12;;;;;;;12.40;7.70;;;;;;;-147.86;100.00;85985.06;105835;1254;72665;-44
2024/04/16 04:47:39;;;;;;;8.10;7.40;;;;;;;-147.86;100.00;86055.52;105855;1257;61957;-49
2024/04/16 04:50:07;;;;;;;8.70;7.90;;;;;;;-147.86;100.00;86027.42;105888;1253;61258;-45
2024/04/16 04:52:36;;;;;;;8.20;7.50;;;;;;;-147.86;100.00;85970.41;105883;1257;75090;-45
2024/04/16 04:55:04;;;;;;;11.50;7.60;;;;;;;-147.86;100.00;86002.48;105837;1254;65424;-46
2024/04/16 04:57:31;;;;;;;9.80;8.80;;;;;;;-147.86;100.00;86108.55;105895;1253;71844;-45
2024/04/16 04:59:58;;;;;;;9.50;7.80;;;;;;;-147.86;100.00;85980.71;105872;1253;62273;-48
2024/04/16 05:02:25;;;;;;;8.00;7.20;;;;;;;-147.86;100.00;85931.23;105810;1256;61229;-47
2024/04/16 05:04:52;;;;;;;10.30;7.50;;;;;;;-147.86;100.00;85977.95;105902;1256;74497;-47
2024/04/16 05:07:19;;;;;;;7.90;7.20;;;;;;;-147.86;100.00;86073.33;105839;1252;66203;-46
2024/04/16 05:09:49;;;;;;;10.30;7.00;;;;;;;-147.86;100.00;86127.56;105910;1257;72955;-46
2024/04/16 05:12:16;;;;;;;11.60;6.70;;;;;;;-147.86;100.00;86176.25;105806;1254;62027;-45
2024/04/16 05:14:43;;;;;;;7.00;6.10;;;;;;;-147.86;100.00;86251.06;105918;1254;61216;-46
2024/04/16 05:17:10;;;;;;;7.60;6.70;;;;;;;-147.86;100.00;86271.24;105803;1256;75789;-47
2024/04/16 05:19:37;;;;;;;9.40;6.20;;;;;;;-147.86;100.00;86159.23;105885;1254;65799;-47
2024/04/16 05:22:04;;;;;;;7.60;6.90;;;;;;;-147.86;100.00;86307.66;105814;1254;72871;-46
2024/04/16 05:24:31;;;;;;;8.60;6.90;;;;;;;-147.86;100.00;86390.39;105824;1254;61838;-45
2024/04/16 05:26:58;;;;;;;8.50;6.20;;;;;;;-147.86;100.00;86374.16;105918;1253;61331;-46
2024/04/16 05:29:25;;;;;;;8.90;6.60;;;;;;;-147.86;100.00;86376.14;105854;1257;73689;-47
2024/04/16 05:31:52;;;;;;;8.20;7.30;;;;;;;-147.86;100.00;86399.89;105862;1254;64565;-46
2024/04/16 05:34:19;;;;;;;10.80;7.20;;;;;;;-147.86;100.00;86425.23;105853;1254;72203;-47
2024/04/16 05:36:46;;;;;;;8.60;6.80;;;;;;;-147.86;100.00;86429.58;105881;1254;63694;-47
2024/04/16 05:39:14;;;;;;;9.30;6.40;;;;;;;-147.86;100.00;86323.10;105837;1253;61806;-47
2024/04/16 05:41:41;;;;;;;9.40;6.10;;;;;;;-147.86;100.00;86188.11;105883;1257;76199;-46
2024/04/16 05:44:08;;;;;;;7.40;6.30;;;;;;;-147.86;100.00;86038.50;105832;1254;65731;-45
2024/04/16 05:46:35;;;;;;;11.20;6.80;;;;;;;-147.86;100.00;85924.12;105888;1253;72783;-48
2024/04/16 05:49:05;;;;;;;10.40;6.70;;;;;;;-147.86;100.00;85846.94;105870;1254;63162;-47
2024/04/16 05:51:32;;;;;;;7.00;6.10;;;;;;;-147.86;100.00;85870.68;105922;1254;61331;-45
2024/04/16 05:54:00;;;;;;;7.20;6.50;;;;;;;-147.86;100.00;85782.82;105835;1256;74210;-45
2024/04/16 05:56:28;;;;;;;9.30;7.00;;;;;;;-147.86;100.00;85680.30;105968;1255;64678;-45
2024/04/16 05:58:54;;;;;;;9.40;7.10;;;;;;;-147.86;100.00;85503.00;105813;1253;73824;-45
2024/04/16 06:01:21;;;;;;;10.60;7.00;;;;;;;-147.86;100.00;85157.92;105893;1254;62145;-44
2024/04/16 06:03:48;;;;;;;7.80;6.40;;;;;;;-147.86;100.00;84889.23;105867;1254;61229;-48
2024/04/16 06:06:16;;;;;;;8.10;7.00;;;;;;;-147.86;100.00;84838.19;105867;1252;74761;-49
2024/04/16 06:08:43;;;;;;;7.30;6.70;;;;;;;-147.86;100.00;84767.75;105830;1254;65767;-46
2024/04/16 06:11:10;;;;;;;11.70;7.80;;;;;;;-147.86;100.00;84694.95;105846;1254;71754;-47
2024/04/16 06:13:37;;;;;;;8.70;6.70;;;;;;;-147.86;100.00;84556.06;105806;1253;61188;-46
2024/04/16 06:16:08;;;;;;;8.70;6.60;;;;;;;-147.86;100.00;84525.99;105873;1257;61193;-47
2024/04/16 06:18:35;;;;;;;7.40;6.20;;;;;;;-147.86;100.00;84889.23;105863;1256;74974;-45
2024/04/16 06:21:02;;;;;;;8.70;5.80;;;;;;;-147.86;100.00;85064.92;105906;1253;65216;-45
2024/04/16 06:23:29;;;;;;;7.10;6.10;;;;;;;-147.86;100.00;85164.25;105951;1254;72907;-47
2024/04/16 06:25:56;;;;;;;7.20;6.50;;;;;;;-147.86;100.00;85104.10;105832;1254;62151;-47
2024/04/16 06:28:24;;;;;;;14.60;6.30;;;;;;;-147.86;100.00;85051.08;105840;1253;61226;-48
2024/04/16 06:30:51;;;;;;;7.80;5.70;;;;;;;-147.86;100.00;84889.63;105952;1255;75825;-48
2024/04/16 06:33:18;;;;;;;6.70;5.90;;;;;;;-147.86;100.00;84864.30;105879;1253;66029;-45
2024/04/16 06:35:46;;;;;;;14.60;6.80;;;;;;;-147.86;100.00;84816.02;105867;1257;74092;-45
2024/04/16 06:38:12;;;;;;;8.80;5.70;;;;;;;-147.86;100.00;84774.88;105888;1253;63575;-47
2024/04/16 06:40:39;;;;;;;8.80;5.90;;;;;;;-147.86;100.00;84897.93;105869;1253;61283;-47
2024/04/16 06:43:06;;;;;;;11.30;6.00;;;;;;;-147.86;100.00;84919.70;105838;1256;74838;-46
2024/04/16 06:45:33;;;;;;;6.80;6.10;;;;;;;-147.86;100.00;84942.25;105802;1253;66997;-45
2024/04/16 06:48:00;;;;;;;10.60;6.90;;;;;;;-147.86;100.00;84862.33;105862;1253;73645;-47
2024/04/16 06:50:32;;;;;;;12.00;7.60;;;;;;;-147.86;100.00;84610.27;105841;1255;61322;-47
2024/04/16 06:52:59;;;;;;;7.50;6.80;;;;;;;-147.86;100.00;84476.54;105812;1253;61158;-46
2024/04/16 06:55:26;;;;;;;8.70;7.60;;;;;;;-147.86;100.00;84211.46;105884;1257;76356;-46
2024/04/16 06:57:55;;;;;;;14.40;9.70;;;;;;;-147.86;100.00;83861.73;105910;1253;64907;-47
2024/04/16 07:00:23;;;;;;;12.20;10.20;;;;;;;-147.86;100.00;83455.88;105883;1257;73168;-47
2024/04/16 07:02:50;;;;;;;16.60;10.20;;;;;;;-147.86;100.00;82878.00;105779;1253;61145;-47
2024/04/16 07:05:18;;;;;;;15.80;12.10;;;;;;;-147.86;100.00;82333.84;105779;1253;61699;-48
2024/04/16 07:07:45;;;;;;;21.70;10.70;;;;;;;-147.86;100.00;81719.36;105871;1257;74649;-45
2024/04/16 07:10:12;;;;;;;14.80;11.10;;;;;;;-147.86;100.00;81070.58;105841;1256;67032;-52
2024/04/16 07:12:40;;;;;;;12.60;11.20;;;;;;;-147.86;100.00;80565.39;105893;1257;74308;-48
2024/04/16 07:15:08;;;;;;;11.30;10.20;;;;;;;-147.86;100.00;80097.42;105571;1253;63630;-43
2024/04/16 07:17:37;;;;;;;13.80;10.80;;;;;;;-147.86;100.00;79606.58;105658;1252;61342;-44
2024/04/16 07:20:05;;;;;;;13.70;9.50;;;;;;;-147.86;100.00;79291.63;105732;1253;74915;-46
2024/04/16 07:22:33;;;;;;;13.20;9.10;;;;;;;-147.86;100.00;78828.15;105895;1253;64783;-47
2024/04/16 07:25:00;;;;;;;15.20;10.00;;;;;;;-147.86;100.00;78248.18;105866;1253;72803;-49
2024/04/16 07:27:27;;;;;;;14.30;8.90;;;;;;;-147.86;100.00;77598.00;105877;1253;62301;-45
2024/04/16 07:29:54;;;;;;;14.70;10.10;;;;;;;-147.86;100.00;76861.04;105860;1253;61474;-43
2024/04/16 07:32:22;;;;;;;12.20;9.40;;;;;;;-147.86;100.00;75912.19;105849;1252;74824;-43
2024/04/16 07:34:49;;;;;;;15.90;10.90;;;;;;;-147.86;100.00;74813.57;105914;1253;66854;-45
2024/04/16 07:37:17;;;;;;;12.70;9.40;;;;;;;-147.86;100.00;73817.05;105836;1257;72941;-46
2024/04/16 07:39:46;;;;;;;17.60;10.50;;;;;;;-147.86;100.00;72537.95;105830;1254;62290;-47
2024/04/16 07:42:14;;;;;;;18.90;10.80;;;;;;;-147.86;100.00;71283.70;105896;1253;61264;-46
2024/04/16 07:44:41;;;;;;;11.60;9.30;;;;;;;-147.86;100.00;70035.75;105863;1253;73832;-47
2024/04/16 07:47:08;;;;;;;12.80;9.80;;;;;;;-147.86;100.00;68811.05;105832;1253;65728;-47
2024/04/16 07:49:36;;;;;;;14.90;10.00;;;;;;;-147.86;100.00;67765.21;105905;1253;73436;-44
2024/04/16 07:52:03;;;;;;;11.90;9.50;;;;;;;-147.86;100.00;67001.69;105848;1253;62244;-48
2024/04/16 07:54:31;;;;;;;19.10;10.40;;;;;;;-147.86;100.00;66482.13;105842;1253;61604;-48
2024/04/16 07:56:59;;;;;;;12.90;10.20;;;;;;;-147.86;100.00;65872.05;105927;1257;73838;-44
2024/04/16 07:59:26;;;;;;;13.70;9.90;;;;;;;-147.86;100.00;64723.04;105931;1253;64668;-45
2024/04/16 08:01:53;;;;;;;15.20;11.10;;;;;;;-147.86;100.00;63203.63;105884;1253;72681;-45
2024/04/16 08:04:20;;;;;;;17.30;10.50;;;;;;;-147.86;100.00;61416.88;105868;1253;61268;-47
2024/04/16 08:06:48;;;;;;;14.50;10.40;;;;;;;-147.86;100.00;59126.88;105867;1253;61279;-47
2024/04/16 08:09:15;;;;;;;16.20;10.20;;;;;;;-147.86;100.00;56195.82;105855;1253;74892;-47
2024/04/16 08:11:43;;;;;;;14.00;9.90;;;;;;;-147.86;100.00;52709.94;105911;1256;65810;-46
2024/04/16 08:14:11;;;;;;;10.30;9.20;;;;;;;-147.86;100.00;47459.29;105858;1257;73004;-45
2024/04/16 08:16:38;;;;;;;14.30;10.00;;;;;;;-147.86;100.00;39127.75;105850;1256;61241;-48
2024/04/16 08:19:05;;;;;;;11.40;9.20;;;;;;;-147.86;100.00;23173.31;105885;1252;61289;-45
2024/04/16 08:21:32;;;;;;;20.60;11.00;;;;;;;-147.86;100.00;-2369.55;105894;1252;75080;-48
2024/04/16 08:23:59;;;;;;;13.50;10.70;;;;;;;-147.86;100.00;-12563.55;105858;1253;64808;-47
2024/04/16 08:26:26;;;;;;;13.60;10.60;;;;;;;-147.86;100.00;-16877.52;105919;1253;73011;-50
2024/04/16 08:28:54;;;;;;;14.70;10.60;;;;;;;-147.86;100.00;-17609.17;105952;1252;61149;-45
2024/04/16 08:31:21;;;;;;;15.30;11.10;;;;;;;-147.86;100.00;-17609.17;105810;1253;61286;-47
2024/04/16 08:33:48;;;;;;;16.20;10.60;;;;;;;-147.86;100.00;-17609.17;105844;1253;75019;-45
2024/04/16 08:36:15;;;;;;;16.30;11.00;;;;;;;-147.86;100.00;-17609.17;105843;1253;65498;-45
2024/04/16 08:38:42;;;;;;;15.20;10.00;;;;;;;-147.86;100.00;-17609.17;105810;1257;71953;-47
2024/04/16 08:41:09;;;;;;;13.30;9.30;;;;;;;-147.86;100.00;-17609.17;105854;1253;63180;-48
2024/04/16 08:43:37;;;;;;;12.30;10.00;;;;;;;-147.86;100.00;-17609.17;105897;1253;61252;-48
2024/04/16 08:46:05;;;;;;;19.20;11.10;;;;;;;-147.86;100.00;-17609.17;105705;1258;73742;-45
2024/04/16 08:48:33;;;;;;;17.70;11.10;;;;;;;-147.86;100.00;-17609.17;105890;1253;65771;-47
2024/04/16 08:51:00;;;;;;;16.20;10.80;;;;;;;-147.86;100.00;-17609.17;105646;1260;72809;-47
2024/04/16 08:53:27;;;;;;;16.30;12.50;;;;;;;-147.86;100.00;-17609.17;105680;1253;62382;-48
2024/04/16 08:55:54;;;;;;;18.20;12.60;;;;;;;-147.86;100.00;-17609.17;105697;1252;61226;-45
2024/04/16 08:58:21;;;;;;;18.70;12.50;;;;;;;-147.86;100.00;-17609.17;105926;1252;73995;-46
2024/04/16 09:00:49;;;;;;;19.80;13.00;;;;;;;-147.86;100.00;-17609.17;105893;1253;64003;-48
2024/04/16 09:03:16;;;;;;;18.70;13.00;;;;;;;-147.86;100.00;-17609.17;105675;1258;72045;-48
2024/04/16 09:05:43;;;;;;;21.90;13.90;;;;;;;-147.86;100.00;-17609.17;105846;1253;62678;-47
2024/04/16 09:08:10;;;;;;;18.20;14.50;;;;;;;-147.86;100.00;-17609.17;105645;1259;61700;-45
2024/04/16 09:10:37;;;;;;;21.30;14.80;;;;;;;-147.86;100.00;-17609.17;105826;1252;74875;-46
2024/04/16 09:13:11;;;;;;;25.60;14.20;;;;;;;-147.86;100.00;-17609.17;105889;1253;66778;-46
2024/04/16 09:15:39;;;;;;;20.20;14.80;;;;;;;-147.86;100.00;-17609.17;105879;1253;71515;-47
2024/04/16 09:18:07;;;;;;;21.70;14.70;;;;;;;-147.86;100.00;-17609.17;105869;1253;61317;-47
2024/04/16 09:20:34;;;;;;;20.50;14.00;;;;;;;-147.86;100.00;-17609.17;105857;1254;61379;-45
2024/04/16 09:23:02;;;;;;;23.60;13.30;;;;;;;-147.86;100.00;-17609.17;105605;1253;358086;-45
2024/04/16 09:26:47;;;;;;;18.40;14.20;;;;;;;-147.86;100.00;-17609.17;102611;1289;602454;-47
2024/04/16 09:29:26;;;;;;;21.60;14.30;;;;;;;-147.86;100.00;-17609.17;105069;1267;59644;-46
2024/04/16 09:31:59;;;;;;;17.20;13.20;;;;;;;-147.86;100.00;-17609.17;105046;1266;59891;-48
2024/04/16 09:34:26;;;;;;;20.10;13.20;;;;;;;-147.86;100.00;-17609.17;105725;1253;73582;-46
2024/04/16 09:36:54;;;;;;;18.40;13.40;;;;;;;-147.86;100.00;-17609.17;105708;1259;65789;-48
2024/04/16 09:39:21;;;;;;;19.50;13.90;;;;;;;-147.86;100.00;-17609.17;105547;1251;272864;-47
2024/04/16 09:41:49;;;;;;;19.20;13.20;;;;;;;-147.86;100.00;-17609.17;105927;1251;61357;-45
2024/04/16 09:44:16;;;;;;;20.50;13.40;;;;;;;-147.86;100.00;-17609.17;105966;1251;61775;-47
2024/04/16 09:46:44;;;;;;;18.10;13.10;;;;;;;-147.86;100.00;-17609.17;105962;1256;72003;-46
2024/04/16 09:49:14;;;;;;;17.20;12.90;;;;;;;-147.86;100.00;-17609.17;105950;1256;65927;-49
2024/04/16 09:51:41;;;;;;;20.70;13.40;;;;;;;-147.86;100.00;-17609.17;105972;1251;73075;-50
2024/04/16 09:54:11;;;;;;;18.70;12.80;;;;;;;-147.86;100.00;-17609.17;105808;1256;61558;-47
2024/04/16 09:56:38;;;;;;;18.20;12.80;;;;;;;-147.86;100.00;-17609.17;105971;1251;60504;-48
2024/04/16 09:59:06;;;;;;;16.70;12.30;;;;;;;-147.86;100.00;-17609.17;105946;1256;74085;-47
2024/04/16 10:01:33;;;;;;;20.30;12.90;;;;;;;-147.86;100.00;-17609.17;105910;1256;64563;-49
2024/04/16 10:04:00;;;;;;;20.20;13.10;;;;;;;-147.86;100.00;-17609.17;105885;1254;73999;-48
2024/04/16 10:06:27;;;;;;;16.40;12.70;;;;;;;-147.86;100.00;-17609.17;105381;1259;63731;-49
2024/04/16 10:08:54;;;;;;;17.40;13.20;;;;;;;-147.86;100.00;-17609.17;105909;1253;61662;-52
2024/04/16 10:11:22;;;;;;;21.20;13.60;;;;;;;-147.86;100.00;-17609.17;105908;1256;73351;-47
2024/04/16 10:13:58;;;;;;;20.00;13.40;;;;;;;-147.86;100.00;-17609.17;105873;1254;65935;-46
2024/04/16 10:16:25;;;;;;;18.60;12.40;;;;;;;-147.86;100.00;-17609.17;105860;1253;72862;-44
2024/04/16 10:18:56;;;;;;;14.80;12.10;;;;;;;-147.86;100.00;-17609.17;105893;1256;61564;-49
2024/04/16 10:21:26;;;;;;;16.10;13.10;;;;;;;-147.86;100.00;-17609.17;105892;1254;61670;-46
2024/04/16 10:24:00;;;;;;;13.70;11.30;;;;;;;-147.86;100.00;-17609.17;105863;1256;73000;-47
2024/04/16 10:26:31;;;;;;;22.80;12.10;;;;;;;-147.86;100.00;-17609.17;105905;1256;65306;-44
2024/04/16 10:28:59;;;;;;;20.00;12.50;;;;;;;-147.86;100.00;-17609.17;105863;1253;72652;-48
2024/04/16 10:31:30;;;;;;;14.20;11.80;;;;;;;-147.86;100.00;-17609.17;105887;1256;61176;-43
2024/04/16 10:34:03;;;;;;;16.00;11.80;;;;;;;-147.86;100.00;-17609.17;105890;1254;60562;-46
2024/04/16 10:36:32;;;;;;;14.50;11.80;;;;;;;-147.86;100.00;-17609.17;105821;1254;74122;-47
2024/04/16 10:39:09;;;;;;;20.60;12.60;;;;;;;-147.86;100.00;-17609.17;105838;1256;66559;-47
2024/04/16 10:41:37;;;;;;;23.60;11.10;;;;;;;-147.86;100.00;-17609.17;105801;1254;72887;-47
2024/04/16 10:44:04;;;;;;;19.00;12.50;;;;;;;-147.86;100.00;-17609.17;105834;1256;60544;-49
2024/04/16 10:46:31;;;;;;;16.50;12.50;;;;;;;-147.86;100.00;-17609.17;105837;1253;60920;-45
2024/04/16 10:48:58;;;;;;;22.40;11.40;;;;;;;-147.86;100.00;-17609.17;105711;1254;74145;-47
2024/04/16 10:51:28;;;;;;;15.30;10.30;;;;;;;-147.86;100.00;-17609.17;105815;1256;65227;-46
2024/04/16 10:54:06;;;;;;;16.50;11.80;;;;;;;-147.86;100.00;-17609.17;105796;1254;73863;-46
2024/04/16 10:56:37;;;;;;;25.10;11.10;;;;;;;-147.86;100.00;-17609.17;105819;1254;60474;-46